createdAt,value
2019-03-25T00:00:04.265Z,83.89
2019-03-25T00:01:04.257Z,83.99
2019-03-25T00:02:04.243Z,84.20
2019-03-25T00:03:04.236Z,84.51
2019-03-25T00:04:04.257Z,84.55
2019-03-25T00:05:04.218Z,85.13
2019-03-25T00:06:04.199Z,84.44
2019-03-25T00:07:04.195Z,84.92
2019-03-25T00:08:04.189Z,85.37
2019-03-25T00:09:05.640Z,84.96
2019-03-25T00:10:04.170Z,85.17
2019-03-25T00:11:04.154Z,84.96
2019-03-25T00:12:04.164Z,84.44
2019-03-25T00:13:04.132Z,84.75
2019-03-25T00:14:04.157Z,84.86
2019-03-25T00:15:04.119Z,84.44
2019-03-25T00:16:04.115Z,83.99
2019-03-25T00:17:04.098Z,83.99
2019-03-25T00:18:04.082Z,83.83
2019-03-25T00:19:04.108Z,84.23
2019-03-25T00:20:04.071Z,84.13
2019-03-25T00:21:04.048Z,84.13
2019-03-25T00:22:04.045Z,84.03
2019-03-25T00:23:04.055Z,83.83
2019-03-25T00:24:04.024Z,83.72
2019-03-25T00:25:04.040Z,84.48
2019-03-25T00:26:04.005Z,83.97
2019-03-25T00:27:03.985Z,84.07
2019-03-25T00:28:03.975Z,83.97
2019-03-25T00:29:03.975Z,84.59
2019-03-25T00:30:03.954Z,84.17
2019-03-25T00:31:03.972Z,83.86
2019-03-25T00:32:03.937Z,83.45
2019-03-25T00:33:03.929Z,83.10
2019-03-25T00:34:03.913Z,83.04
2019-03-25T00:35:03.903Z,83.00
2019-03-25T00:36:03.892Z,82.89
2019-03-25T00:37:03.910Z,82.69
2019-03-25T00:38:03.878Z,82.79
2019-03-25T00:39:03.875Z,82.59
2019-03-25T00:40:03.923Z,82.48
2019-03-25T00:41:03.850Z,81.82
2019-03-25T00:42:03.826Z,82.28
2019-03-25T00:43:03.822Z,82.17
2019-03-25T00:44:03.807Z,82.17
2019-03-25T00:45:03.826Z,82.38
2019-03-25T00:46:03.781Z,82.93
2019-03-25T00:47:03.783Z,83.14
2019-03-25T00:48:03.769Z,83.28
2019-03-25T00:49:03.756Z,84.21
2019-03-25T00:50:03.753Z,84.63
2019-03-25T00:51:03.759Z,83.90
2019-03-25T00:52:03.753Z,84.66
2019-03-25T00:53:03.747Z,84.31
2019-03-25T00:54:03.703Z,84.52
2019-03-25T00:55:03.697Z,83.73
2019-03-25T00:56:03.681Z,83.84
2019-03-25T00:57:03.680Z,84.08
2019-03-25T00:58:03.668Z,86.15
2019-03-25T00:59:03.678Z,86.81
2019-03-25T01:00:03.643Z,86.81
2019-03-25T01:01:03.633Z,86.57
2019-03-25T01:02:03.622Z,86.88
2019-03-25T01:03:03.608Z,86.57
2019-03-25T01:04:03.630Z,86.67
2019-03-25T01:05:03.591Z,86.77
2019-03-25T01:06:03.588Z,86.67
2019-03-25T01:07:03.604Z,86.88
2019-03-25T01:08:03.569Z,86.57
2019-03-25T01:09:03.752Z,87.08
2019-03-25T01:10:03.577Z,86.77
2019-03-25T01:11:03.532Z,86.88
2019-03-25T01:12:03.526Z,86.88
2019-03-25T01:13:03.506Z,86.67
2019-03-25T01:14:03.500Z,87.23
2019-03-25T01:15:03.529Z,87.85
2019-03-25T01:16:03.503Z,88.36
2019-03-25T01:17:03.477Z,87.85
2019-03-25T01:18:03.458Z,87.81
2019-03-25T01:19:03.446Z,87.70
2019-03-25T01:20:03.468Z,87.70
2019-03-25T01:21:03.475Z,87.81
2019-03-25T01:22:03.421Z,87.81
2019-03-25T01:23:03.410Z,87.49
2019-03-25T01:24:03.398Z,87.60
2019-03-25T01:25:03.384Z,87.49
2019-03-25T01:26:03.399Z,87.81
2019-03-25T01:27:03.363Z,87.70
2019-03-25T01:28:03.355Z,87.91
2019-03-25T01:29:03.341Z,87.70
2019-03-25T01:30:03.333Z,87.70
2019-03-25T01:31:03.433Z,87.46
2019-03-25T01:32:04.209Z,86.88
2019-03-25T01:33:03.305Z,86.52
2019-03-25T01:34:03.297Z,86.73
2019-03-25T01:35:03.312Z,86.63
2019-03-25T01:36:03.270Z,86.83
2019-03-25T01:37:03.257Z,86.52
2019-03-25T01:38:03.250Z,86.52
2019-03-25T01:39:03.244Z,86.59
2019-03-25T01:40:03.393Z,86.73
2019-03-25T01:41:03.437Z,86.79
2019-03-25T01:42:03.221Z,86.90
2019-03-25T01:43:03.199Z,86.79
2019-03-25T01:44:03.192Z,86.59
2019-03-25T01:45:03.179Z,86.69
2019-03-25T01:46:03.173Z,86.49
2019-03-25T01:47:03.181Z,86.38
2019-03-25T01:48:03.147Z,86.90
2019-03-25T01:49:03.142Z,86.69
2019-03-25T01:50:03.132Z,86.34
2019-03-25T01:51:03.119Z,85.93
2019-03-25T01:52:03.677Z,86.03
2019-03-25T01:53:03.435Z,86.34
2019-03-25T01:54:03.087Z,86.96
2019-03-25T01:55:12.996Z,86.76
2019-03-25T01:56:04.095Z,86.76
2019-03-25T01:57:03.057Z,86.24
2019-03-25T01:58:03.048Z,86.86
2019-03-25T01:59:03.034Z,86.82
2019-03-25T02:00:03.024Z,86.30
2019-03-25T02:01:03.038Z,86.44
2019-03-25T02:02:03.002Z,86.30
2019-03-25T02:03:03.028Z,86.51
2019-03-25T02:04:02.985Z,86.61
2019-03-25T02:05:02.970Z,86.82
2019-03-25T02:06:02.965Z,86.92
2019-03-25T02:07:02.963Z,86.51
2019-03-25T02:08:02.943Z,86.92
2019-03-25T02:09:02.967Z,86.71
2019-03-25T02:10:02.934Z,86.82
2019-03-25T02:11:02.915Z,86.92
2019-03-25T02:12:03.660Z,86.82
2019-03-25T02:13:02.889Z,87.02
2019-03-25T02:14:02.876Z,86.41
2019-03-25T02:15:02.902Z,86.51
2019-03-25T02:16:03.383Z,86.47
2019-03-25T02:17:02.846Z,86.10
2019-03-25T02:18:02.842Z,85.95
2019-03-25T02:19:02.837Z,85.81
2019-03-25T02:20:02.841Z,85.09
2019-03-25T02:21:02.800Z,85.19
2019-03-25T02:22:02.792Z,84.53
2019-03-25T02:23:03.133Z,84.33
2019-03-25T02:24:02.780Z,83.81
2019-03-25T02:25:02.769Z,83.71
2019-03-25T02:26:02.768Z,83.29
2019-03-25T02:27:03.750Z,83.05
2019-03-25T02:28:02.737Z,83.26
2019-03-25T02:29:02.725Z,82.89
2019-03-25T02:30:02.762Z,82.89
2019-03-25T02:31:02.705Z,83.15
2019-03-25T02:32:02.698Z,83.29
2019-03-25T02:33:02.685Z,83.47
2019-03-25T02:34:02.671Z,83.09
2019-03-25T02:35:04.259Z,83.05
2019-03-25T02:36:02.656Z,82.98
2019-03-25T02:37:02.699Z,82.68
2019-03-25T02:38:03.060Z,82.98
2019-03-25T02:39:02.618Z,83.09
2019-03-25T02:40:02.631Z,83.91
2019-03-25T02:41:02.606Z,83.71
2019-03-25T02:42:02.587Z,83.29
2019-03-25T02:43:03.220Z,83.64
2019-03-25T02:44:02.620Z,83.54
2019-03-25T02:45:02.557Z,83.95
2019-03-25T02:46:02.573Z,84.06
2019-03-25T02:47:02.566Z,84.09
2019-03-25T02:48:02.526Z,85.02
2019-03-25T02:49:02.523Z,84.81
2019-03-25T02:50:02.513Z,84.41
2019-03-25T02:51:02.502Z,85.37
2019-03-25T02:52:02.511Z,85.17
2019-03-25T02:53:02.475Z,84.75
2019-03-25T02:54:02.463Z,85.17
2019-03-25T02:55:02.452Z,84.30
2019-03-25T02:56:02.473Z,84.34
2019-03-25T02:57:02.437Z,84.44
2019-03-25T02:58:02.433Z,84.96
2019-03-25T02:59:02.415Z,84.44
2019-03-25T03:00:02.395Z,85.27
2019-03-25T03:01:02.418Z,85.62
2019-03-25T03:02:02.375Z,85.68
2019-03-25T03:03:02.371Z,86.03
2019-03-25T03:04:02.366Z,85.72
2019-03-25T03:05:02.358Z,86.86
2019-03-25T03:06:02.366Z,86.86
2019-03-25T03:07:02.329Z,86.79
2019-03-25T03:08:02.325Z,86.69
2019-03-25T03:09:02.310Z,86.55
2019-03-25T03:10:02.300Z,86.34
2019-03-25T03:11:02.384Z,86.76
2019-03-25T03:12:02.325Z,86.69
2019-03-25T03:13:02.297Z,87.10
2019-03-25T03:14:02.318Z,86.90
2019-03-25T03:15:02.308Z,87.00
2019-03-25T03:16:02.358Z,87.35
2019-03-25T03:17:02.294Z,87.04
2019-03-25T03:18:02.280Z,87.46
2019-03-25T03:19:02.273Z,87.70
2019-03-25T03:20:02.253Z,87.66
2019-03-25T03:21:02.292Z,88.28
2019-03-25T03:22:02.226Z,88.01
2019-03-25T03:23:02.212Z,87.81
2019-03-25T03:24:02.196Z,87.39
2019-03-25T03:25:02.197Z,87.81
2019-03-25T03:26:02.263Z,89.36
2019-03-25T03:27:02.200Z,89.92
2019-03-25T03:28:02.145Z,89.81
2019-03-25T03:29:02.146Z,90.12
2019-03-25T03:30:02.763Z,89.98
2019-03-25T03:31:02.251Z,89.71
2019-03-25T03:32:02.737Z,90.12
2019-03-25T03:33:02.126Z,90.33
2019-03-25T03:34:02.103Z,89.81
2019-03-25T03:35:02.111Z,90.12
2019-03-25T03:36:02.091Z,90.64
2019-03-25T03:37:02.157Z,90.19
2019-03-25T03:38:02.052Z,89.92
2019-03-25T03:39:02.055Z,89.36
2019-03-25T03:40:02.044Z,89.04
2019-03-25T03:41:02.100Z,88.98
2019-03-25T03:42:01.998Z,88.43
2019-03-25T03:43:02.008Z,88.84
2019-03-25T03:44:02.034Z,87.85
2019-03-25T03:45:01.987Z,88.06
2019-03-25T03:46:03.608Z,87.60
2019-03-25T03:47:01.960Z,88.88
2019-03-25T03:48:01.947Z,90.23
2019-03-25T03:49:01.951Z,90.53
2019-03-25T03:50:02.006Z,90.12
2019-03-25T03:51:02.025Z,90.23
2019-03-25T03:52:01.922Z,90.74
2019-03-25T03:53:01.903Z,91.16
2019-03-25T03:54:01.897Z,91.16
2019-03-25T03:55:01.884Z,91.67
2019-03-25T03:56:12.668Z,91.05
2019-03-25T03:57:02.914Z,91.78
2019-03-25T03:58:01.842Z,91.36
2019-03-25T03:59:01.828Z,91.26
2019-03-25T04:00:01.882Z,91.26
2019-03-25T04:01:02.371Z,91.57
2019-03-25T04:02:01.891Z,91.57
2019-03-25T04:03:01.809Z,91.78
2019-03-25T04:04:01.797Z,91.26
2019-03-25T04:05:01.778Z,91.16
2019-03-25T04:06:01.851Z,90.95
2019-03-25T04:07:02.994Z,90.84
2019-03-25T04:08:01.768Z,91.82
2019-03-25T04:09:03.529Z,91.61
2019-03-25T04:10:01.715Z,91.61
2019-03-25T04:11:01.760Z,92.44
2019-03-25T04:12:01.720Z,92.03
2019-03-25T04:13:01.708Z,92.13
2019-03-25T04:14:01.692Z,92.28
2019-03-25T04:15:01.692Z,91.61
2019-03-25T04:16:01.893Z,91.55
2019-03-25T04:17:01.646Z,91.55
2019-03-25T04:18:01.640Z,91.66
2019-03-25T04:19:01.640Z,90.83
2019-03-25T04:20:01.623Z,91.39
2019-03-25T04:21:01.623Z,92.11
2019-03-25T04:22:01.698Z,94.29
2019-03-25T04:23:01.636Z,93.87
2019-03-25T04:24:01.573Z,93.29
2019-03-25T04:25:01.584Z,93.08
2019-03-25T04:26:01.558Z,93.60
2019-03-25T04:27:01.517Z,94.37
2019-03-25T04:28:01.509Z,94.27
2019-03-25T04:29:01.503Z,94.17
2019-03-25T04:30:01.489Z,93.91
2019-03-25T04:31:02.268Z,94.54
2019-03-25T04:32:01.465Z,93.81
2019-03-25T04:33:01.456Z,93.60
2019-03-25T04:34:01.465Z,94.12
2019-03-25T04:35:01.434Z,94.12
2019-03-25T04:36:03.386Z,92.78
2019-03-25T04:37:01.411Z,91.22
2019-03-25T04:38:01.413Z,91.16
2019-03-25T04:39:01.388Z,91.27
2019-03-25T04:40:01.408Z,91.93
2019-03-25T04:41:01.407Z,92.55
2019-03-25T04:42:01.355Z,93.07
2019-03-25T04:43:01.359Z,92.90
2019-03-25T04:44:01.345Z,93.22
2019-03-25T04:45:01.330Z,92.49
2019-03-25T04:46:03.489Z,92.63
2019-03-25T04:47:01.317Z,93.05
2019-03-25T04:48:01.311Z,92.63
2019-03-25T04:49:01.303Z,91.80
2019-03-25T04:50:01.274Z,92.36
2019-03-25T04:51:01.467Z,93.10
2019-03-25T04:52:01.264Z,93.62
2019-03-25T04:53:01.249Z,94.59
2019-03-25T04:54:01.251Z,94.59
2019-03-25T04:55:01.228Z,94.07
2019-03-25T04:56:01.274Z,94.34
2019-03-25T04:57:01.208Z,94.07
2019-03-25T04:58:01.739Z,94.18
2019-03-25T04:59:01.183Z,94.90
2019-03-25T05:00:01.194Z,93.55
2019-03-25T05:01:01.146Z,93.91
2019-03-25T05:02:01.185Z,95.99
2019-03-25T05:03:01.157Z,96.25
2019-03-25T05:04:01.122Z,95.73
2019-03-25T05:05:01.122Z,95.47
2019-03-25T05:06:01.109Z,95.67
2019-03-25T05:07:01.127Z,95.78
2019-03-25T05:08:01.081Z,95.57
2019-03-25T05:09:01.079Z,95.42
2019-03-25T05:10:01.063Z,94.84
2019-03-25T05:11:03.602Z,94.32
2019-03-25T05:12:01.072Z,94.22
2019-03-25T05:13:01.526Z,94.64
2019-03-25T05:14:01.022Z,94.53
2019-03-25T05:15:01.014Z,94.22
2019-03-25T05:16:01.000Z,94.64
2019-03-25T05:17:00.992Z,95.67
2019-03-25T05:18:00.981Z,95.89
2019-03-25T05:19:01.502Z,96.30
2019-03-25T05:20:00.960Z,96.72
2019-03-25T05:21:00.951Z,96.51
2019-03-25T05:22:02.802Z,96.61
2019-03-25T05:23:00.933Z,96.67
2019-03-25T05:24:00.920Z,96.36
2019-03-25T05:25:00.914Z,95.84
2019-03-25T05:26:00.906Z,96.00
2019-03-25T05:27:00.896Z,95.69
2019-03-25T05:28:00.916Z,95.42
2019-03-25T05:29:00.873Z,95.48
2019-03-25T05:30:00.862Z,96.42
2019-03-25T05:31:00.863Z,96.48
2019-03-25T05:32:01.868Z,96.33
2019-03-25T05:33:00.826Z,95.92
2019-03-25T05:34:00.817Z,95.77
2019-03-25T05:35:00.807Z,95.46
2019-03-25T05:36:00.811Z,95.56
2019-03-25T05:37:00.812Z,95.67
2019-03-25T05:38:00.783Z,95.67
2019-03-25T05:39:00.765Z,94.01
2019-03-25T05:40:00.757Z,94.37
2019-03-25T05:41:00.750Z,94.58
2019-03-25T05:42:00.761Z,93.81
2019-03-25T05:43:00.742Z,93.50
2019-03-25T05:44:00.714Z,94.02
2019-03-25T05:45:00.705Z,94.02
2019-03-25T05:46:00.692Z,93.98
2019-03-25T05:47:03.718Z,93.25
2019-03-25T05:48:00.678Z,92.49
2019-03-25T05:49:00.673Z,92.38
2019-03-25T05:50:00.653Z,91.93
2019-03-25T05:51:00.654Z,91.61
2019-03-25T05:52:00.696Z,91.61
2019-03-25T05:53:00.621Z,90.84
2019-03-25T05:54:00.620Z,89.50
2019-03-25T05:55:00.603Z,89.71
2019-03-25T05:56:00.595Z,89.25
2019-03-25T05:57:02.689Z,89.46
2019-03-25T05:58:02.415Z,88.84
2019-03-25T05:59:00.567Z,88.32
2019-03-25T06:00:00.549Z,88.32
2019-03-25T06:01:00.546Z,88.28
2019-03-25T06:02:00.528Z,87.97
2019-03-25T06:03:01.231Z,89.11
2019-03-25T06:04:00.521Z,88.80
2019-03-25T06:05:01.064Z,89.62
2019-03-25T06:06:00.491Z,88.59
2019-03-25T06:07:00.477Z,88.28
2019-03-25T06:08:00.468Z,89.42
2019-03-25T06:09:00.456Z,89.42
2019-03-25T06:10:00.447Z,89.42
2019-03-25T06:11:00.464Z,89.01
2019-03-25T06:12:00.428Z,89.11
2019-03-25T06:13:00.462Z,88.96
2019-03-25T06:14:00.456Z,88.24
2019-03-25T06:15:00.393Z,87.27
2019-03-25T06:16:00.382Z,86.96
2019-03-25T06:17:00.459Z,86.96
2019-03-25T06:18:02.398Z,86.86
2019-03-25T06:19:00.356Z,86.76
2019-03-25T06:20:00.392Z,86.30
2019-03-25T06:21:00.331Z,86.10
2019-03-25T06:22:00.334Z,84.96
2019-03-25T06:23:00.442Z,85.47
2019-03-25T06:24:02.046Z,85.17
2019-03-25T06:25:00.354Z,85.47
2019-03-25T06:26:00.281Z,85.06
2019-03-25T06:27:00.285Z,85.06
2019-03-25T06:28:00.277Z,86.61
2019-03-25T06:29:00.254Z,86.65
2019-03-25T06:30:04.399Z,86.65
2019-03-25T06:31:00.281Z,86.71
2019-03-25T06:32:00.223Z,86.51
2019-03-25T06:33:11.929Z,86.71
2019-03-25T06:34:01.199Z,85.68
2019-03-25T06:35:00.599Z,85.58
2019-03-25T06:36:00.173Z,84.09
2019-03-25T06:37:00.167Z,84.51
2019-03-25T06:38:00.417Z,83.99
2019-03-25T06:39:00.152Z,84.47
2019-03-25T06:40:00.322Z,83.95
2019-03-25T06:41:00.122Z,84.67
2019-03-25T06:42:00.147Z,84.36
2019-03-25T06:43:00.135Z,83.09
2019-03-25T06:44:00.101Z,82.57
2019-03-25T06:45:00.692Z,82.06
2019-03-25T06:46:00.079Z,82.74
2019-03-25T06:47:00.071Z,82.74
2019-03-25T06:48:00.055Z,82.12
2019-03-25T06:49:00.076Z,80.27
2019-03-25T06:50:00.037Z,78.41
2019-03-25T06:51:00.053Z,77.86
2019-03-25T06:52:00.023Z,78.96
2019-03-25T06:53:00.021Z,78.72
2019-03-25T06:54:00.009Z,80.05
2019-03-25T06:55:00.020Z,80.47
2019-03-25T06:55:59.970Z,78.34
2019-03-25T06:56:59.996Z,77.48
2019-03-25T06:57:59.952Z,77.58
2019-03-25T06:58:59.964Z,78.27
2019-03-25T06:59:59.932Z,79.19
2019-03-25T07:00:59.949Z,78.37
2019-03-25T07:01:59.913Z,78.06
2019-03-25T07:02:59.904Z,76.07
2019-03-25T07:03:59.891Z,74.74
2019-03-25T07:04:59.882Z,74.67
2019-03-25T07:05:59.897Z,74.84
2019-03-25T07:06:59.892Z,75.25
2019-03-25T07:07:59.843Z,75.08
2019-03-25T07:08:59.840Z,73.02
2019-03-25T07:09:59.830Z,72.89
2019-03-25T07:10:59.860Z,72.92
2019-03-25T07:11:59.801Z,72.17
2019-03-25T07:12:59.791Z,71.14
2019-03-25T07:13:59.793Z,71.96
2019-03-25T07:14:59.806Z,71.45
2019-03-25T07:15:59.765Z,73.57
2019-03-25T07:16:59.755Z,72.17
2019-03-25T07:17:59.746Z,70.45
2019-03-25T07:18:59.728Z,68.91
2019-03-25T07:19:59.722Z,71.96
2019-03-25T07:20:59.742Z,71.66
2019-03-25T07:21:59.706Z,68.50
2019-03-25T07:22:59.687Z,69.94
2019-03-25T07:23:59.685Z,72.20
2019-03-25T07:24:59.711Z,69.63
2019-03-25T07:25:59.661Z,66.75
2019-03-25T07:26:59.644Z,69.76
2019-03-25T07:27:59.631Z,68.53
2019-03-25T07:28:59.623Z,69.87
2019-03-25T07:29:59.619Z,67.65
2019-03-25T07:30:59.639Z,64.50
2019-03-25T07:31:59.593Z,62.52
2019-03-25T07:32:59.581Z,64.54
2019-03-25T07:33:59.569Z,66.14
2019-03-25T07:34:59.597Z,64.16
2019-03-25T07:35:59.572Z,63.47
2019-03-25T07:36:59.542Z,64.12
2019-03-25T07:37:59.531Z,63.50
2019-03-25T07:39:00.308Z,62.09
2019-03-25T07:39:59.511Z,62.81
2019-03-25T07:40:59.541Z,62.99
2019-03-25T07:41:59.495Z,59.77
2019-03-25T07:42:59.484Z,60.75
2019-03-25T07:43:59.473Z,56.92
2019-03-25T07:44:59.460Z,56.67
2019-03-25T07:45:59.471Z,57.35
2019-03-25T07:46:59.450Z,54.67
2019-03-25T07:47:59.465Z,56.10
2019-03-25T07:48:59.440Z,55.28
2019-03-25T07:49:59.414Z,53.92
2019-03-25T07:50:59.407Z,52.21
2019-03-25T07:51:59.381Z,55.74
2019-03-25T07:52:59.380Z,54.74
2019-03-25T07:53:59.366Z,54.95
2019-03-25T07:54:59.396Z,53.49
2019-03-25T07:55:59.374Z,52.80
2019-03-25T07:56:59.369Z,53.18
2019-03-25T07:58:00.194Z,51.18
2019-03-25T07:58:59.317Z,50.96
2019-03-25T07:59:59.314Z,51.65
2019-03-25T08:00:59.314Z,48.38
2019-03-25T08:01:59.296Z,47.74
2019-03-25T08:02:59.311Z,46.41
2019-03-25T08:03:59.258Z,47.74
2019-03-25T08:04:59.358Z,46.49
2019-03-25T08:05:59.305Z,47.19
2019-03-25T08:06:59.263Z,45.45
2019-03-25T08:07:59.234Z,43.18
2019-03-25T08:09:03.670Z,43.08
2019-03-25T08:10:00.383Z,44.00
2019-03-25T08:10:59.245Z,44.02
2019-03-25T08:11:59.203Z,41.56
2019-03-25T08:12:59.217Z,43.90
2019-03-25T08:13:59.200Z,42.88
2019-03-25T08:14:59.173Z,41.85
2019-03-25T08:15:59.176Z,41.65
2019-03-25T08:16:59.134Z,40.49
2019-03-25T08:17:59.125Z,42.41
2019-03-25T08:18:59.099Z,41.57
2019-03-25T08:19:59.093Z,40.66
2019-03-25T08:20:59.112Z,40.35
2019-03-25T08:21:59.080Z,38.09
2019-03-25T08:22:59.066Z,39.53
2019-03-25T08:23:59.051Z,39.04
2019-03-25T08:24:59.050Z,40.96
2019-03-25T08:25:59.061Z,39.04
2019-03-25T08:26:59.094Z,38.94
2019-03-25T08:28:00.179Z,40.88
2019-03-25T08:28:59.003Z,39.31
2019-03-25T08:29:58.994Z,39.82
2019-03-25T08:30:59.015Z,37.97
2019-03-25T08:31:59.174Z,38.78
2019-03-25T08:32:58.953Z,38.40
2019-03-25T08:33:58.945Z,38.99
2019-03-25T08:34:58.939Z,37.45
2019-03-25T08:35:58.956Z,35.92
2019-03-25T08:36:58.915Z,36.61
2019-03-25T08:37:58.917Z,38.34
2019-03-25T08:38:58.893Z,36.61
2019-03-25T08:39:58.885Z,37.93
2019-03-25T08:40:58.914Z,38.95
2019-03-25T08:41:58.993Z,37.02
2019-03-25T08:42:58.858Z,36.49
2019-03-25T08:43:58.850Z,35.70
2019-03-25T08:44:58.836Z,37.10
2019-03-25T08:45:58.816Z,35.17
2019-03-25T08:46:58.808Z,36.78
2019-03-25T08:47:58.823Z,36.90
2019-03-25T08:48:58.787Z,36.29
2019-03-25T08:49:58.782Z,36.97
2019-03-25T08:50:58.802Z,37.07
2019-03-25T08:51:58.760Z,35.33
2019-03-25T08:52:58.742Z,33.57
2019-03-25T08:53:58.735Z,34.47
2019-03-25T08:54:58.724Z,34.67
2019-03-25T08:55:58.750Z,36.27
2019-03-25T08:56:58.706Z,34.87
2019-03-25T08:57:58.696Z,35.19
2019-03-25T08:58:58.678Z,34.89
2019-03-25T08:59:58.666Z,35.48
2019-03-25T09:00:58.688Z,36.17
2019-03-25T09:01:58.653Z,32.71
2019-03-25T09:02:58.644Z,33.49
2019-03-25T09:03:58.635Z,31.55
2019-03-25T09:04:58.620Z,31.13
2019-03-25T09:05:59.602Z,33.46
2019-03-25T09:06:58.601Z,34.20
2019-03-25T09:07:58.596Z,32.91
2019-03-25T09:08:58.579Z,33.29
2019-03-25T09:09:58.566Z,33.98
2019-03-25T09:10:58.586Z,36.56
2019-03-25T09:11:58.552Z,36.16
2019-03-25T09:12:58.536Z,36.04
2019-03-25T09:13:58.527Z,34.38
2019-03-25T09:14:58.510Z,34.38
2019-03-25T09:15:58.501Z,35.26
2019-03-25T09:17:00.532Z,32.50
2019-03-25T09:17:58.658Z,33.40
2019-03-25T09:18:58.501Z,35.33
2019-03-25T09:19:58.502Z,34.39
2019-03-25T09:20:58.452Z,33.48
2019-03-25T09:21:58.451Z,32.65
2019-03-25T09:22:58.428Z,31.77
2019-03-25T09:23:58.431Z,33.53
2019-03-25T09:24:58.440Z,34.27
2019-03-25T09:25:58.399Z,34.97
2019-03-25T09:26:58.384Z,34.53
2019-03-25T09:27:59.249Z,34.56
2019-03-25T09:28:58.372Z,34.80
2019-03-25T09:29:58.351Z,36.36
2019-03-25T09:30:58.390Z,35.95
2019-03-25T09:31:58.360Z,35.82
2019-03-25T09:32:58.323Z,35.12
2019-03-25T09:33:58.311Z,36.32
2019-03-25T09:34:58.301Z,35.19
2019-03-25T09:35:58.376Z,36.34
2019-03-25T09:36:58.304Z,36.04
2019-03-25T09:37:58.271Z,35.32
2019-03-25T09:38:58.294Z,35.19
2019-03-25T09:39:58.255Z,35.60
2019-03-25T09:40:58.243Z,34.99
2019-03-25T09:41:58.270Z,36.21
2019-03-25T09:42:58.216Z,34.71
2019-03-25T09:43:58.248Z,36.83
2019-03-25T09:44:58.192Z,36.12
2019-03-25T09:45:58.182Z,35.02
2019-03-25T09:46:58.182Z,35.14
2019-03-25T09:47:58.174Z,36.16
2019-03-25T09:48:58.153Z,37.99
2019-03-25T09:49:58.171Z,37.79
2019-03-25T09:50:58.141Z,36.44
2019-03-25T09:51:58.160Z,36.14
2019-03-25T09:52:58.109Z,37.48
2019-03-25T09:53:58.101Z,38.90
2019-03-25T09:54:58.090Z,37.70
2019-03-25T09:55:58.078Z,38.01
2019-03-25T09:56:58.096Z,37.62
2019-03-25T09:57:58.058Z,39.57
2019-03-25T09:58:58.120Z,40.39
2019-03-25T09:59:58.707Z,39.67
2019-03-25T10:00:58.032Z,38.76
2019-03-25T10:01:58.045Z,40.39
2019-03-25T10:02:58.012Z,38.45
2019-03-25T10:03:57.994Z,38.57
2019-03-25T10:04:57.991Z,40.41
2019-03-25T10:05:57.981Z,40.42
2019-03-25T10:06:58.022Z,40.75
2019-03-25T10:07:57.962Z,40.03
2019-03-25T10:08:57.953Z,40.87
2019-03-25T10:09:57.935Z,39.85
2019-03-25T10:10:57.930Z,40.46
2019-03-25T10:11:57.922Z,40.79
2019-03-25T10:12:57.931Z,40.28
2019-03-25T10:13:57.891Z,37.54
2019-03-25T10:14:57.877Z,38.78
2019-03-25T10:15:57.877Z,38.78
2019-03-25T10:16:57.868Z,39.39
2019-03-25T10:17:57.850Z,39.70
2019-03-25T10:18:57.878Z,38.11
2019-03-25T10:19:57.824Z,36.94
2019-03-25T10:20:57.814Z,35.78
2019-03-25T10:21:57.814Z,36.29
2019-03-25T10:22:57.796Z,37.38
2019-03-25T10:23:57.831Z,36.16
2019-03-25T10:24:57.806Z,36.27
2019-03-25T10:25:57.765Z,36.05
2019-03-25T10:26:57.780Z,36.05
2019-03-25T10:27:57.743Z,36.90
2019-03-25T10:28:57.736Z,37.01
2019-03-25T10:29:57.726Z,36.40
2019-03-25T10:30:57.719Z,37.21
2019-03-25T10:31:57.741Z,37.19
2019-03-25T10:32:57.692Z,37.17
2019-03-25T10:33:57.689Z,36.16
2019-03-25T10:34:57.671Z,35.56
2019-03-25T10:35:57.660Z,36.04
2019-03-25T10:36:57.678Z,37.95
2019-03-25T10:37:57.638Z,35.68
2019-03-25T10:38:57.629Z,36.21
2019-03-25T10:39:57.628Z,36.34
2019-03-25T10:40:57.603Z,36.53
2019-03-25T10:41:57.633Z,36.14
2019-03-25T10:42:57.586Z,36.19
2019-03-25T10:43:57.580Z,36.29
2019-03-25T10:44:57.605Z,35.00
2019-03-25T10:45:57.556Z,34.10
2019-03-25T10:46:57.540Z,34.99
2019-03-25T10:47:57.569Z,34.97
2019-03-25T10:48:57.538Z,34.85
2019-03-25T10:49:57.520Z,32.62
2019-03-25T10:50:57.506Z,34.21
2019-03-25T10:51:57.520Z,33.12
2019-03-25T10:52:57.507Z,34.77
2019-03-25T10:53:57.486Z,35.07
2019-03-25T10:55:57.484Z,33.69
2019-03-25T10:56:57.583Z,35.73
2019-03-25T10:57:58.746Z,35.42
2019-03-25T11:01:20.459Z,34.95
2019-03-25T11:02:18.652Z,35.08
2019-03-25T11:03:18.508Z,36.51
2019-03-25T11:04:18.499Z,36.25
2019-03-25T11:05:18.521Z,36.38
2019-03-25T11:06:18.504Z,35.68
2019-03-25T11:07:19.407Z,36.41
2019-03-25T11:08:18.502Z,36.41
2019-03-25T11:09:18.527Z,38.45
2019-03-25T11:10:18.441Z,36.71
2019-03-25T11:11:18.435Z,37.23
2019-03-25T11:12:18.441Z,36.00
2019-03-25T11:13:18.403Z,36.90
2019-03-25T11:14:18.406Z,37.60
2019-03-25T11:15:18.393Z,38.29
2019-03-25T11:16:18.377Z,39.15
2019-03-25T11:17:18.392Z,34.70
2019-03-25T11:18:18.358Z,35.73
2019-03-25T11:19:18.346Z,36.22
2019-03-25T11:20:18.330Z,34.77
2019-03-25T11:21:18.331Z,34.97
2019-03-25T11:22:18.349Z,34.93
2019-03-25T11:23:18.304Z,37.26
2019-03-25T11:24:18.295Z,37.89
2019-03-25T11:25:18.280Z,38.62
2019-03-25T11:26:18.269Z,38.52
2019-03-25T11:27:18.291Z,39.46
2019-03-25T11:28:18.245Z,38.76
2019-03-25T11:29:18.261Z,39.60
2019-03-25T11:30:18.237Z,40.31
2019-03-25T11:31:18.218Z,39.92
2019-03-25T11:32:18.239Z,41.36
2019-03-25T11:33:18.206Z,40.95
2019-03-25T11:34:18.187Z,41.97
2019-03-25T11:35:18.178Z,40.74
2019-03-25T11:36:18.165Z,42.71
2019-03-25T11:37:18.180Z,41.27
2019-03-25T11:38:18.170Z,40.25
2019-03-25T11:39:18.132Z,41.58
2019-03-25T11:40:18.119Z,42.81
2019-03-25T11:41:18.113Z,40.74
2019-03-25T11:42:18.158Z,41.95
2019-03-25T11:43:18.797Z,42.05
2019-03-25T11:44:18.085Z,40.38
2019-03-25T11:45:18.075Z,40.01
2019-03-25T11:46:18.077Z,36.68
2019-03-25T11:47:18.091Z,38.81
2019-03-25T11:48:18.041Z,38.64
2019-03-25T11:49:18.027Z,41.22
2019-03-25T11:50:18.017Z,39.39
2019-03-25T11:51:18.002Z,41.15
2019-03-25T11:52:17.994Z,41.03
2019-03-25T11:53:18.012Z,39.82
2019-03-25T11:54:17.982Z,39.33
2019-03-25T11:55:17.971Z,41.17
2019-03-25T11:56:17.989Z,38.92
2019-03-25T11:57:17.991Z,40.25
2019-03-25T11:58:17.941Z,41.56
2019-03-25T11:59:18.833Z,40.76
2019-03-25T12:00:17.937Z,41.38
2019-03-25T12:01:17.903Z,40.45
2019-03-25T12:02:18.052Z,40.35
2019-03-25T12:03:17.882Z,42.69
2019-03-25T12:04:17.864Z,41.46
2019-03-25T12:05:17.858Z,40.33
2019-03-25T12:06:17.851Z,41.17
2019-03-25T12:07:17.836Z,40.13
2019-03-25T12:08:17.861Z,41.95
2019-03-25T12:09:17.816Z,40.83
2019-03-25T12:10:17.810Z,41.05
2019-03-25T12:11:17.796Z,41.05
2019-03-25T12:12:18.078Z,42.48
2019-03-25T12:13:17.802Z,42.77
2019-03-25T12:14:17.763Z,42.26
2019-03-25T12:15:17.780Z,40.30
2019-03-25T12:16:17.744Z,41.11
2019-03-25T12:17:17.730Z,40.70
2019-03-25T12:18:17.751Z,41.09
2019-03-25T12:19:17.712Z,40.28
2019-03-25T12:20:17.700Z,41.49
2019-03-25T12:21:17.686Z,39.75
2019-03-25T12:22:17.711Z,38.42
2019-03-25T12:23:26.041Z,40.05
2019-03-25T12:24:18.652Z,37.28
2019-03-25T12:25:17.642Z,38.60
2019-03-25T12:26:17.640Z,38.91
2019-03-25T12:27:17.653Z,37.01
2019-03-25T12:28:17.665Z,38.76
2019-03-25T12:29:17.601Z,39.99
2019-03-25T12:30:17.599Z,38.47
2019-03-25T12:31:17.657Z,40.64
2019-03-25T12:32:17.578Z,39.21
2019-03-25T12:33:17.569Z,38.18
2019-03-25T12:34:17.696Z,40.54
2019-03-25T12:35:17.542Z,40.13
2019-03-25T12:36:17.557Z,38.75
2019-03-25T12:37:17.559Z,37.74
2019-03-25T12:38:17.539Z,38.04
2019-03-25T12:39:17.499Z,38.15
2019-03-25T12:40:17.495Z,38.56
2019-03-25T12:41:17.487Z,38.06
2019-03-25T12:42:17.469Z,37.98
2019-03-25T12:43:17.494Z,39.72
2019-03-25T12:44:17.457Z,38.39
2019-03-25T12:45:17.437Z,38.80
2019-03-25T12:46:17.425Z,39.21
2019-03-25T12:47:17.436Z,36.38
2019-03-25T12:48:17.459Z,35.58
2019-03-25T12:49:17.401Z,37.45
2019-03-25T12:50:17.400Z,37.67
2019-03-25T12:51:17.371Z,40.15
2019-03-25T12:52:17.371Z,39.53
2019-03-25T12:53:17.401Z,35.22
2019-03-25T12:54:17.348Z,33.44
2019-03-25T12:55:17.343Z,35.53